Time;durP1;ratioP1;P1;durP2;ratioP2;P2;SDS_P1;SDS_P2;PMS_P1;PMS_P2;Temp;Humidity;BMP_temperature;BMP_pressure;BME280_temperature;BME280_humidity;BME280_pressure;Samples;Min_cycle;Max_cycle;Signal;HPM_P1;HPM_P2
2021/12/28 00:01:20;;;;;;;1.08;0.30;;;;;;;;;;5035154;28;20021;-66
2021/12/28 00:03:46;;;;;;;0.40;0.17;;;;;;;;;;5034744;28;20029;-66
2021/12/28 00:06:12;;;;;;;0.40;0.40;;;;;;;;;;5035079;28;20404;-66
2021/12/28 00:08:37;;;;;;;0.85;0.20;;;;;;;;;;5034867;28;20278;-67
2021/12/28 00:11:03;;;;;;;0.10;0.10;;;;;;;;;;5034869;28;20035;-67
2021/12/28 00:13:29;;;;;;;0.47;0.10;;;;;;;;;;5034917;28;20540;-66
2021/12/28 00:18:20;;;;;;;0.50;0.20;;;;;;;;;;5035141;28;20064;-66
2021/12/28 00:20:47;;;;;;;1.77;0.30;;;;;;;;;;5033033;28;20053;-66
2021/12/28 00:23:14;;;;;;;0.20;0.10;;;;;;;;;;5034771;28;20419;-66
2021/12/28 00:25:39;;;;;;;1.27;0.20;;;;;;;;;;5034578;28;20093;-66
2021/12/28 00:28:05;;;;;;;0.65;0.28;;;;;;;;;;5034391;28;20112;-66
2021/12/28 00:30:30;;;;;;;0.30;0.10;;;;;;;;;;5034608;28;20095;-66
2021/12/28 00:32:56;;;;;;;0.63;0.20;;;;;;;;;;5034344;28;20456;-66
2021/12/28 00:35:25;;;;;;;0.30;0.10;;;;;;;;;;5034579;28;20026;-67
2021/12/28 00:37:51;;;;;;;0.32;0.32;;;;;;;;;;5034271;28;20033;-66
2021/12/28 00:40:17;;;;;;;0.75;0.40;;;;;;;;;;5034392;28;20022;-66
2021/12/28 00:42:42;;;;;;;0.43;0.20;;;;;;;;;;5034185;28;20025;-66
2021/12/28 00:45:08;;;;;;;0.28;0.20;;;;;;;;;;5034318;28;20027;-66
2021/12/28 00:47:33;;;;;;;1.70;0.50;;;;;;;;;;5034244;28;20040;-66
2021/12/28 00:49:58;;;;;;;1.10;0.10;;;;;;;;;;5033130;28;20049;-66
2021/12/28 00:52:23;;;;;;;0.20;0.10;;;;;;;;;;5034486;28;20701;-66
2021/12/28 00:54:48;;;;;;;0.50;0.10;;;;;;;;;;5034208;28;20045;-66
2021/12/28 00:57:14;;;;;;;1.35;0.13;;;;;;;;;;5034056;28;20261;-66
2021/12/28 00:59:39;;;;;;;0.75;0.10;;;;;;;;;;5033851;28;20067;-67
2021/12/28 01:02:04;;;;;;;0.82;0.13;;;;;;;;;;5033877;28;20017;-66
2021/12/28 01:04:30;;;;;;;0.63;0.13;;;;;;;;;;5034006;28;20017;-66
2021/12/28 01:06:56;;;;;;;0.52;0.20;;;;;;;;;;5033620;28;20741;-66
2021/12/28 01:09:23;;;;;;;0.40;0.30;;;;;;;;;;5033916;28;20024;-66
2021/12/28 01:11:48;;;;;;;0.50;0.22;;;;;;;;;;5033570;28;20759;-66
2021/12/28 01:14:13;;;;;;;0.40;0.20;;;;;;;;;;5033867;28;20104;-66
2021/12/28 01:16:38;;;;;;;0.30;0.10;;;;;;;;;;5033728;28;20258;-67
2021/12/28 01:19:05;;;;;;;0.20;0.20;;;;;;;;;;5033702;28;20040;-66
2021/12/28 01:21:30;;;;;;;0.47;0.30;;;;;;;;;;5033455;28;20278;-66
2021/12/28 01:23:55;;;;;;;0.30;0.10;;;;;;;;;;5033097;28;20353;-66
2021/12/28 01:26:20;;;;;;;0.55;0.22;;;;;;;;;;5033544;28;20324;-66
2021/12/28 01:28:46;;;;;;;0.80;0.20;;;;;;;;;;5033173;28;20033;-66
2021/12/28 01:31:11;;;;;;;0.97;0.20;;;;;;;;;;5033467;28;20286;-66
2021/12/28 01:33:36;;;;;;;0.10;0.10;;;;;;;;;;5033356;28;20243;-66
2021/12/28 01:36:01;;;;;;;0.22;0.10;;;;;;;;;;5033172;28;20610;-66
2021/12/28 01:38:27;;;;;;;1.65;0.30;;;;;;;;;;5033324;28;20022;-65
2021/12/28 01:40:53;;;;;;;0.25;0.10;;;;;;;;;;5033134;28;20053;-66
2021/12/28 01:43:20;;;;;;;0.22;0.00;;;;;;;;;;5033214;28;20380;-65
2021/12/28 01:45:49;;;;;;;0.65;0.38;;;;;;;;;;5032905;28;20025;-66
2021/12/28 01:48:25;;;;;;;0.50;0.10;;;;;;;;;;5033124;28;20049;-66
2021/12/28 01:50:52;;;;;;;0.15;0.08;;;;;;;;;;5032844;28;20445;-66
2021/12/28 01:53:18;;;;;;;0.10;0.05;;;;;;;;;;5033069;28;20025;-67
2021/12/28 01:55:44;;;;;;;0.15;0.10;;;;;;;;;;5032794;28;20032;-66
2021/12/28 01:58:10;;;;;;;0.17;0.17;;;;;;;;;;5032838;28;20030;-66
2021/12/28 02:00:36;;;;;;;0.60;0.20;;;;;;;;;;5032721;28;20025;-66
2021/12/28 02:03:05;;;;;;;0.63;0.05;;;;;;;;;;5032710;28;20515;-66
2021/12/28 02:05:30;;;;;;;0.65;0.30;;;;;;;;;;5032797;28;20025;-66
2021/12/28 02:07:55;;;;;;;1.30;0.20;;;;;;;;;;5032508;28;20030;-66
2021/12/28 02:10:20;;;;;;;0.80;0.20;;;;;;;;;;5032838;28;20273;-66
2021/12/28 02:12:46;;;;;;;0.77;0.30;;;;;;;;;;5032475;28;20472;-66
2021/12/28 02:15:14;;;;;;;0.77;0.20;;;;;;;;;;5032739;28;20317;-66
2021/12/28 02:17:39;;;;;;;0.22;0.20;;;;;;;;;;5032643;28;20025;-66
2021/12/28 02:20:06;;;;;;;0.40;0.10;;;;;;;;;;5032505;28;20017;-66
2021/12/28 02:22:31;;;;;;;1.30;0.20;;;;;;;;;;5032500;28;20559;-66
2021/12/28 02:24:56;;;;;;;1.60;0.50;;;;;;;;;;5032318;28;20037;-66
2021/12/28 02:27:22;;;;;;;0.93;0.20;;;;;;;;;;5032719;28;20104;-66
2021/12/28 02:29:47;;;;;;;0.73;0.37;;;;;;;;;;5032267;28;20033;-66
2021/12/28 02:32:12;;;;;;;0.30;0.20;;;;;;;;;;5032413;28;20710;-66
2021/12/28 02:34:37;;;;;;;0.10;0.10;;;;;;;;;;5032362;28;20303;-66
2021/12/28 02:37:02;;;;;;;0.53;0.17;;;;;;;;;;5032260;28;20083;-66
2021/12/28 02:39:27;;;;;;;0.52;0.20;;;;;;;;;;5032403;28;20250;-66
2021/12/28 02:41:53;;;;;;;0.10;0.00;;;;;;;;;;5032105;28;20025;-66
2021/12/28 02:44:18;;;;;;;0.13;0.00;;;;;;;;;;5032384;28;20258;-66
2021/12/28 02:46:43;;;;;;;0.30;0.10;;;;;;;;;;5032061;28;20250;-66
2021/12/28 02:49:08;;;;;;;1.30;0.30;;;;;;;;;;5032368;28;20056;-67
2021/12/28 02:51:34;;;;;;;0.43;0.20;;;;;;;;;;5032581;28;20300;-66
2021/12/28 02:53:59;;;;;;;0.30;0.20;;;;;;;;;;5032062;28;20338;-65
2021/12/28 02:56:24;;;;;;;0.17;0.07;;;;;;;;;;5032332;28;20021;-66
2021/12/28 02:58:50;;;;;;;1.17;0.40;;;;;;;;;;5031905;28;20108;-66
2021/12/28 03:01:20;;;;;;;0.38;0.10;;;;;;;;;;5032262;28;20254;-66
2021/12/28 03:03:47;;;;;;;0.17;0.00;;;;;;;;;;5031752;28;20037;-66
2021/12/28 03:06:14;;;;;;;0.35;0.10;;;;;;;;;;5032135;28;20515;-66
2021/12/28 03:08:40;;;;;;;0.20;0.10;;;;;;;;;;5031975;28;20040;-66
2021/12/28 03:11:08;;;;;;;0.28;0.10;;;;;;;;;;5032292;28;20014;-66
2021/12/28 03:13:35;;;;;;;0.25;0.10;;;;;;;;;;5035145;28;20024;-66
2021/12/28 03:16:00;;;;;;;0.28;0.10;;;;;;;;;;5035769;28;20029;-66
2021/12/28 03:18:26;;;;;;;0.98;0.30;;;;;;;;;;5035985;28;20023;-66
2021/12/28 03:20:51;;;;;;;1.20;0.17;;;;;;;;;;5035429;28;20104;-66
2021/12/28 03:23:17;;;;;;;0.40;0.10;;;;;;;;;;5035894;28;20031;-67
2021/12/28 03:25:43;;;;;;;0.20;0.10;;;;;;;;;;5035820;28;20022;-66
2021/12/28 03:28:09;;;;;;;0.30;0.10;;;;;;;;;;5035722;28;20025;-66
2021/12/28 03:30:34;;;;;;;0.50;0.13;;;;;;;;;;5035738;28;20495;-66
2021/12/28 03:32:59;;;;;;;1.20;0.55;;;;;;;;;;5035692;28;20487;-66
2021/12/28 03:35:25;;;;;;;0.37;0.10;;;;;;;;;;5035695;28;20373;-66
2021/12/28 03:37:50;;;;;;;0.47;0.20;;;;;;;;;;5035380;28;20087;-66
2021/12/28 03:40:15;;;;;;;0.63;0.20;;;;;;;;;;5034396;28;20060;-66
2021/12/28 03:42:41;;;;;;;0.40;0.20;;;;;;;;;;5034237;28;20603;-66
2021/12/28 03:45:07;;;;;;;0.40;0.20;;;;;;;;;;5035963;28;20382;-66
2021/12/28 03:47:32;;;;;;;0.45;0.15;;;;;;;;;;5035336;28;20047;-66
2021/12/28 03:49:58;;;;;;;0.77;0.13;;;;;;;;;;5035196;28;20108;-66
2021/12/28 03:52:23;;;;;;;0.30;0.10;;;;;;;;;;5035384;28;20436;-66
2021/12/28 03:54:48;;;;;;;1.47;0.20;;;;;;;;;;5035054;28;20484;-66
2021/12/28 03:57:13;;;;;;;0.33;0.23;;;;;;;;;;5035203;28;20285;-66
2021/12/28 03:59:38;;;;;;;0.77;0.20;;;;;;;;;;5035080;28;20251;-66
2021/12/28 04:02:04;;;;;;;0.77;0.23;;;;;;;;;;5035056;28;20270;-66
2021/12/28 04:04:29;;;;;;;0.20;0.08;;;;;;;;;;5035091;28;20722;-66
2021/12/28 04:06:54;;;;;;;1.05;0.20;;;;;;;;;;5034776;28;20032;-66
2021/12/28 04:09:33;;;;;;;0.30;0.10;;;;;;;;;;5035001;28;20013;-66
2021/12/28 04:11:59;;;;;;;0.52;0.25;;;;;;;;;;5034733;28;20251;-66
2021/12/28 04:14:24;;;;;;;0.47;0.13;;;;;;;;;;5034919;28;20071;-66
2021/12/28 04:16:49;;;;;;;0.70;0.20;;;;;;;;;;5034625;28;20021;-66
2021/12/28 04:19:15;;;;;;;0.33;0.10;;;;;;;;;;5034919;28;20472;-67
2021/12/28 04:21:40;;;;;;;0.20;0.10;;;;;;;;;;5034550;28;20306;-66
2021/12/28 04:24:05;;;;;;;0.25;0.10;;;;;;;;;;5034778;28;20586;-66
2021/12/28 04:26:30;;;;;;;0.32;0.20;;;;;;;;;;5034692;28;20473;-67
2021/12/28 04:28:56;;;;;;;0.20;0.20;;;;;;;;;;5034355;28;20025;-66
2021/12/28 04:31:21;;;;;;;0.10;0.10;;;;;;;;;;5034661;28;20109;-66
2021/12/28 04:33:46;;;;;;;0.10;0.10;;;;;;;;;;5034332;28;20024;-66
2021/12/28 04:36:12;;;;;;;1.02;0.35;;;;;;;;;;5034522;28;20714;-66
2021/12/28 04:38:38;;;;;;;0.63;0.10;;;;;;;;;;5033173;28;20028;-66
2021/12/28 04:41:04;;;;;;;2.72;0.38;;;;;;;;;;5034325;28;20025;-66
2021/12/28 04:43:29;;;;;;;0.17;0.10;;;;;;;;;;5034374;28;20021;-66
2021/12/28 04:45:55;;;;;;;0.20;0.10;;;;;;;;;;5034151;28;20033;-66
2021/12/28 04:48:20;;;;;;;0.57;0.20;;;;;;;;;;5034267;28;20026;-66
2021/12/28 04:50:45;;;;;;;1.33;0.25;;;;;;;;;;5033996;28;20096;-66
2021/12/28 04:53:11;;;;;;;0.08;0.08;;;;;;;;;;5034559;28;20032;-66
2021/12/28 04:55:38;;;;;;;0.82;0.28;;;;;;;;;;5034139;28;20516;-66
2021/12/28 04:58:03;;;;;;;0.20;0.10;;;;;;;;;;5033998;28;20032;-66
2021/12/28 05:00:29;;;;;;;0.50;0.20;;;;;;;;;;5033888;28;20033;-66
2021/12/28 05:02:54;;;;;;;2.45;0.47;;;;;;;;;;5033794;28;20083;-66
2021/12/28 05:05:19;;;;;;;0.27;0.10;;;;;;;;;;5034041;28;20026;-66
2021/12/28 05:07:44;;;;;;;1.58;0.30;;;;;;;;;;5033576;28;20324;-66
2021/12/28 05:10:10;;;;;;;0.63;0.10;;;;;;;;;;5033861;28;20037;-66
2021/12/28 05:12:35;;;;;;;0.73;0.32;;;;;;;;;;5033833;28;20031;-66
2021/12/28 05:15:01;;;;;;;0.90;0.20;;;;;;;;;;5033662;28;20100;-65
2021/12/28 05:17:26;;;;;;;0.82;0.10;;;;;;;;;;5033721;28;20071;-66
2021/12/28 05:19:51;;;;;;;0.70;0.10;;;;;;;;;;5033491;28;20066;-65
2021/12/28 05:22:17;;;;;;;0.85;0.40;;;;;;;;;;5033450;28;20041;-65
2021/12/28 05:24:42;;;;;;;0.82;0.10;;;;;;;;;;5033193;28;20022;-66
2021/12/28 05:27:07;;;;;;;0.22;0.13;;;;;;;;;;5033721;28;20103;-65
2021/12/28 05:29:32;;;;;;;0.55;0.28;;;;;;;;;;5032268;28;20022;-65
2021/12/28 05:31:58;;;;;;;0.55;0.28;;;;;;;;;;5033228;28;20434;-65
2021/12/28 05:34:23;;;;;;;0.47;0.10;;;;;;;;;;5033308;28;20034;-65
2021/12/28 05:36:49;;;;;;;0.20;0.10;;;;;;;;;;5031469;28;20420;-65
2021/12/28 05:39:14;;;;;;;0.17;0.00;;;;;;;;;;5033389;28;20017;-65
2021/12/28 05:41:39;;;;;;;0.20;0.10;;;;;;;;;;5033241;28;20465;-65
2021/12/28 05:44:05;;;;;;;0.40;0.30;;;;;;;;;;5033000;28;20493;-65
2021/12/28 05:46:30;;;;;;;0.68;0.20;;;;;;;;;;5033267;28;20044;-65
2021/12/28 05:48:55;;;;;;;0.10;0.10;;;;;;;;;;5032929;28;20017;-65
2021/12/28 05:51:20;;;;;;;1.50;0.23;;;;;;;;;;5033256;28;20373;-65
2021/12/28 05:53:45;;;;;;;0.10;0.10;;;;;;;;;;5032813;28;20255;-66
2021/12/28 05:56:11;;;;;;;0.52;0.10;;;;;;;;;;5033047;28;20022;-65
2021/12/28 05:58:36;;;;;;;0.37;0.10;;;;;;;;;;5033306;28;20354;-65
2021/12/28 06:01:01;;;;;;;0.60;0.20;;;;;;;;;;5032768;28;20262;-66
2021/12/28 06:03:26;;;;;;;0.60;0.10;;;;;;;;;;5032881;28;20147;-66
2021/12/28 06:05:51;;;;;;;0.40;0.13;;;;;;;;;;5032658;28;20254;-66
2021/12/28 06:08:16;;;;;;;0.40;0.10;;;;;;;;;;5032771;28;20464;-67
2021/12/28 06:10:42;;;;;;;0.33;0.10;;;;;;;;;;5032622;28;20018;-66
2021/12/28 06:13:07;;;;;;;0.50;0.20;;;;;;;;;;5032852;28;20021;-66
2021/12/28 06:15:32;;;;;;;0.17;0.10;;;;;;;;;;5032746;28;20254;-66
2021/12/28 06:17:57;;;;;;;0.40;0.30;;;;;;;;;;5032428;28;20633;-66
2021/12/28 06:20:22;;;;;;;0.70;0.17;;;;;;;;;;5032958;28;20247;-66
2021/12/28 06:22:47;;;;;;;0.67;0.20;;;;;;;;;;5032226;28;20495;-66
2021/12/28 06:25:13;;;;;;;0.68;0.10;;;;;;;;;;5032547;28;20030;-66
2021/12/28 06:27:38;;;;;;;0.20;0.13;;;;;;;;;;5032379;28;20017;-66
2021/12/28 06:30:04;;;;;;;1.03;0.30;;;;;;;;;;5032411;28;20033;-66
2021/12/28 06:32:29;;;;;;;0.30;0.10;;;;;;;;;;5032426;28;20254;-65
2021/12/28 06:34:54;;;;;;;0.33;0.10;;;;;;;;;;5032181;28;20021;-66
2021/12/28 06:37:19;;;;;;;0.70;0.10;;;;;;;;;;5032426;28;20259;-66
2021/12/28 06:39:44;;;;;;;0.40;0.20;;;;;;;;;;5032112;28;20336;-66
2021/12/28 06:42:09;;;;;;;0.10;0.10;;;;;;;;;;5032284;28;20246;-66
2021/12/28 06:44:35;;;;;;;0.63;0.17;;;;;;;;;;5032429;28;20710;-66
2021/12/28 06:47:00;;;;;;;0.93;0.20;;;;;;;;;;5031223;28;20057;-66
2021/12/28 06:49:25;;;;;;;0.10;0.10;;;;;;;;;;5031143;28;20612;-65
2021/12/28 06:51:50;;;;;;;0.20;0.10;;;;;;;;;;5021543;28;20274;-66
2021/12/28 06:54:16;;;;;;;0.67;0.20;;;;;;;;;;5029469;28;20285;-66
2021/12/28 06:56:41;;;;;;;1.15;0.20;;;;;;;;;;5036234;28;20044;-66
2021/12/28 06:59:06;;;;;;;0.40;0.20;;;;;;;;;;5041889;28;20441;-66
2021/12/28 07:01:32;;;;;;;0.63;0.10;;;;;;;;;;5031719;28;20293;-66
2021/12/28 07:03:57;;;;;;;0.57;0.40;;;;;;;;;;5027225;28;20068;-66
2021/12/28 07:06:24;;;;;;;0.87;0.10;;;;;;;;;;5048208;28;20262;-66
2021/12/28 07:08:49;;;;;;;0.20;0.10;;;;;;;;;;5037841;28;20514;-66
2021/12/28 07:11:15;;;;;;;0.82;0.22;;;;;;;;;;5041473;28;20025;-66
2021/12/28 07:13:40;;;;;;;0.55;0.30;;;;;;;;;;5029467;28;20487;-66
2021/12/28 07:16:05;;;;;;;0.10;0.10;;;;;;;;;;5029999;28;20057;-66
2021/12/28 07:18:30;;;;;;;0.40;0.20;;;;;;;;;;5047748;28;20022;-66
2021/12/28 07:20:55;;;;;;;0.10;0.10;;;;;;;;;;5045341;23;20489;-66
2021/12/28 07:23:21;;;;;;;0.32;0.08;;;;;;;;;;5054329;28;20469;-66
2021/12/28 07:25:46;;;;;;;2.30;0.50;;;;;;;;;;5051180;28;20520;-65
2021/12/28 07:28:12;;;;;;;0.52;0.20;;;;;;;;;;5056405;28;20274;-66
2021/12/28 07:30:37;;;;;;;0.10;0.00;;;;;;;;;;5066029;28;20017;-66
2021/12/28 07:33:02;;;;;;;0.10;0.10;;;;;;;;;;5048951;28;20036;-66
2021/12/28 07:35:28;;;;;;;1.42;0.30;;;;;;;;;;5053220;28;20032;-65
2021/12/28 07:37:53;;;;;;;0.15;0.10;;;;;;;;;;5054177;28;20025;-65
2021/12/28 07:40:19;;;;;;;0.85;0.38;;;;;;;;;;5060699;28;20032;-66
2021/12/28 07:42:44;;;;;;;0.77;0.10;;;;;;;;;;5065177;28;20021;-66
2021/12/28 07:45:10;;;;;;;0.30;0.20;;;;;;;;;;5060507;28;20036;-66
2021/12/28 07:47:36;;;;;;;0.63;0.20;;;;;;;;;;5053743;28;20033;-66
2021/12/28 07:50:01;;;;;;;0.50;0.13;;;;;;;;;;5067446;28;20440;-66
2021/12/28 07:52:26;;;;;;;0.55;0.20;;;;;;;;;;5054597;28;20012;-66
2021/12/28 07:54:51;;;;;;;1.30;0.50;;;;;;;;;;5064120;28;20025;-66
2021/12/28 07:57:16;;;;;;;0.10;0.00;;;;;;;;;;5051433;28;20302;-66
2021/12/28 07:59:41;;;;;;;0.43;0.10;;;;;;;;;;5067671;28;20025;-66
2021/12/28 08:02:07;;;;;;;0.40;0.00;;;;;;;;;;5057844;28;20250;-65
2021/12/28 08:04:32;;;;;;;0.30;0.10;;;;;;;;;;5070268;28;20468;-66
2021/12/28 08:06:57;;;;;;;0.28;0.10;;;;;;;;;;5053067;28;20032;-66
2021/12/28 08:09:22;;;;;;;0.53;0.20;;;;;;;;;;5064182;28;20021;-66
2021/12/28 08:11:48;;;;;;;0.40;0.20;;;;;;;;;;5059545;28;20255;-66
2021/12/28 08:14:13;;;;;;;0.38;0.15;;;;;;;;;;5069909;28;20028;-65
2021/12/28 08:16:38;;;;;;;0.57;0.20;;;;;;;;;;5059289;28;20035;-65
2021/12/28 08:19:04;;;;;;;0.10;0.00;;;;;;;;;;5054857;28;20775;-66
2021/12/28 08:21:30;;;;;;;1.00;0.17;;;;;;;;;;5065867;28;20075;-67
2021/12/28 08:23:55;;;;;;;0.77;0.25;;;;;;;;;;5065392;28;20045;-66
2021/12/28 08:26:20;;;;;;;0.30;0.10;;;;;;;;;;5070803;28;20028;-65
2021/12/28 08:28:45;;;;;;;1.17;0.50;;;;;;;;;;5059844;28;20036;-66
2021/12/28 08:31:10;;;;;;;0.63;0.20;;;;;;;;;;5067109;28;20065;-66
2021/12/28 08:33:35;;;;;;;0.20;0.10;;;;;;;;;;5057959;28;20032;-66
2021/12/28 08:36:01;;;;;;;0.60;0.10;;;;;;;;;;5070395;28;20404;-66
2021/12/28 08:38:26;;;;;;;0.30;0.10;;;;;;;;;;5068588;28;20017;-66
2021/12/28 08:40:51;;;;;;;0.30;0.10;;;;;;;;;;5058202;28;20024;-62
2021/12/28 08:43:16;;;;;;;0.65;0.20;;;;;;;;;;5063535;28;20028;-61
2021/12/28 08:45:42;;;;;;;1.10;0.20;;;;;;;;;;5050932;28;20465;-62
2021/12/28 08:48:10;;;;;;;1.00;0.10;;;;;;;;;;5070163;28;20273;-61
2021/12/28 08:50:36;;;;;;;0.43;0.15;;;;;;;;;;5052838;28;20009;-63
2021/12/28 08:53:01;;;;;;;0.70;0.13;;;;;;;;;;5056049;28;20095;-62
2021/12/28 08:55:26;;;;;;;2.67;0.17;;;;;;;;;;5062653;28;20032;-64
2021/12/28 08:57:52;;;;;;;0.60;0.20;;;;;;;;;;5058236;28;20072;-66
2021/12/28 09:00:20;;;;;;;0.45;0.20;;;;;;;;;;5055337;28;20256;-64
2021/12/28 09:02:45;;;;;;;1.15;0.10;;;;;;;;;;5057734;28;20048;-63
2021/12/28 09:05:10;;;;;;;0.67;0.20;;;;;;;;;;5059270;28;20475;-63
2021/12/28 09:07:35;;;;;;;0.47;0.10;;;;;;;;;;5060224;28;20296;-64
2021/12/28 09:10:01;;;;;;;0.37;0.10;;;;;;;;;;5068710;28;20186;-64
2021/12/28 09:12:26;;;;;;;0.20;0.10;;;;;;;;;;5056567;28;20710;-65
2021/12/28 09:14:51;;;;;;;0.10;0.00;;;;;;;;;;5061311;28;20062;-65
2021/12/28 09:17:16;;;;;;;0.75;0.10;;;;;;;;;;5054931;28;20033;-65
2021/12/28 09:19:41;;;;;;;0.03;0.00;;;;;;;;;;5064906;28;20052;-65
2021/12/28 09:22:07;;;;;;;0.37;0.20;;;;;;;;;;5054522;28;20364;-65
2021/12/28 09:24:32;;;;;;;0.30;0.10;;;;;;;;;;5057411;28;20763;-64
2021/12/28 09:26:58;;;;;;;0.20;0.10;;;;;;;;;;5065243;28;20045;-64
2021/12/28 09:29:29;;;;;;;0.15;0.05;;;;;;;;;;5061667;28;20016;-64
2021/12/28 09:31:54;;;;;;;0.93;0.15;;;;;;;;;;5051251;28;20301;-65
2021/12/28 09:34:20;;;;;;;0.40;0.10;;;;;;;;;;5069388;28;20021;-65
2021/12/28 09:36:45;;;;;;;0.22;0.10;;;;;;;;;;5058281;28;20048;-65
2021/12/28 09:39:10;;;;;;;0.00;0.00;;;;;;;;;;5063433;28;20507;-64
2021/12/28 09:41:35;;;;;;;0.52;0.17;;;;;;;;;;5065242;28;20582;-64
2021/12/28 09:44:01;;;;;;;0.20;0.10;;;;;;;;;;5072549;28;20029;-64
2021/12/28 09:46:27;;;;;;;0.37;0.20;;;;;;;;;;5055854;28;20052;-64
2021/12/28 09:48:52;;;;;;;0.20;0.10;;;;;;;;;;5053582;28;20277;-64
2021/12/28 09:51:17;;;;;;;0.70;0.10;;;;;;;;;;5062555;28;20028;-64
2021/12/28 09:53:43;;;;;;;0.47;0.10;;;;;;;;;;5057159;28;20254;-64
2021/12/28 09:56:08;;;;;;;1.15;0.17;;;;;;;;;;5068834;28;20512;-64
2021/12/28 09:58:34;;;;;;;1.30;0.20;;;;;;;;;;5056582;28;20020;-65
2021/12/28 10:00:59;;;;;;;0.25;0.20;;;;;;;;;;5058411;28;20262;-65
2021/12/28 10:03:24;;;;;;;0.27;0.10;;;;;;;;;;5057481;28;20475;-65
2021/12/28 10:05:50;;;;;;;0.10;0.00;;;;;;;;;;5058672;28;20278;-65
2021/12/28 10:08:15;;;;;;;0.17;0.00;;;;;;;;;;5052386;28;20029;-64
2021/12/28 10:10:41;;;;;;;0.47;0.20;;;;;;;;;;5049473;28;20043;-65
2021/12/28 10:13:09;;;;;;;0.32;0.00;;;;;;;;;;5048880;28;20428;-65
2021/12/28 10:15:36;;;;;;;0.65;0.10;;;;;;;;;;5047785;28;20123;-63
2021/12/28 10:18:03;;;;;;;0.45;0.22;;;;;;;;;;5043014;28;20280;-65
2021/12/28 10:20:30;;;;;;;0.73;0.20;;;;;;;;;;5049712;28;20106;-64
2021/12/28 10:23:06;;;;;;;0.60;0.10;;;;;;;;;;5049897;28;20174;-66
2021/12/28 10:25:33;;;;;;;0.45;0.13;;;;;;;;;;5049316;28;20033;-65
2021/12/28 10:28:00;;;;;;;2.30;0.20;;;;;;;;;;5052485;28;20345;-65
2021/12/28 10:30:26;;;;;;;0.50;0.20;;;;;;;;;;5047217;28;20055;-63
2021/12/28 10:33:03;;;;;;;0.30;0.20;;;;;;;;;;5046173;28;20108;-64
2021/12/28 10:35:29;;;;;;;1.45;0.15;;;;;;;;;;5049245;28;20232;-64
2021/12/28 10:37:59;;;;;;;0.70;0.30;;;;;;;;;;5045890;28;20469;-64
2021/12/28 10:40:26;;;;;;;0.77;0.13;;;;;;;;;;5050390;28;20024;-63
2021/12/28 10:42:53;;;;;;;1.60;0.30;;;;;;;;;;5047210;28;20032;-62
2021/12/28 10:45:20;;;;;;;2.03;0.20;;;;;;;;;;5044965;28;20464;-62
2021/12/28 10:47:46;;;;;;;1.55;0.10;;;;;;;;;;5048238;28;20029;-61
2021/12/28 10:50:26;;;;;;;1.40;0.10;;;;;;;;;;5052547;28;20021;-63
2021/12/28 10:53:00;;;;;;;2.28;0.22;;;;;;;;;;5048948;28;20044;-62
2021/12/28 10:55:26;;;;;;;0.50;0.20;;;;;;;;;;5044141;28;20071;-62
2021/12/28 10:57:52;;;;;;;2.15;0.30;;;;;;;;;;5048992;28;20434;-62
2021/12/28 11:00:26;;;;;;;0.82;0.30;;;;;;;;;;5048892;28;20096;-61
2021/12/28 11:02:52;;;;;;;0.47;0.10;;;;;;;;;;5048233;28;20486;-61
2021/12/28 11:05:34;;;;;;;1.02;0.20;;;;;;;;;;5049885;28;20020;-63
2021/12/28 11:07:59;;;;;;;0.65;0.10;;;;;;;;;;5045087;28;20020;-62
2021/12/28 11:10:28;;;;;;;0.73;0.20;;;;;;;;;;5050162;28;20021;-61
2021/12/28 11:12:54;;;;;;;0.70;0.30;;;;;;;;;;5058912;28;20474;-61
2021/12/28 11:15:22;;;;;;;0.35;0.13;;;;;;;;;;5051802;28;20017;-62
2021/12/28 11:17:48;;;;;;;2.40;0.20;;;;;;;;;;5047821;28;20025;-62
2021/12/28 11:20:13;;;;;;;0.13;0.10;;;;;;;;;;5067449;28;20059;-61
2021/12/28 11:22:38;;;;;;;0.20;0.10;;;;;;;;;;5071894;28;20029;-61
2021/12/28 11:25:16;;;;;;;0.95;0.20;;;;;;;;;;5067691;28;20123;-61
2021/12/28 11:27:41;;;;;;;0.65;0.10;;;;;;;;;;5082801;28;20024;-61
2021/12/28 11:30:14;;;;;;;0.38;0.10;;;;;;;;;;5068328;28;20352;-62
2021/12/28 11:32:39;;;;;;;0.43;0.10;;;;;;;;;;5060231;28;20035;-62
2021/12/28 11:35:06;;;;;;;0.52;0.10;;;;;;;;;;5069271;28;20024;-62
2021/12/28 11:37:32;;;;;;;0.00;0.00;;;;;;;;;;5073442;28;20028;-62
2021/12/28 11:39:59;;;;;;;0.45;0.10;;;;;;;;;;5057063;28;20025;-61
2021/12/28 11:42:25;;;;;;;1.20;0.20;;;;;;;;;;5056468;28;20035;-61
2021/12/28 11:44:51;;;;;;;0.85;0.22;;;;;;;;;;5058703;28;20092;-61
2021/12/28 11:47:17;;;;;;;0.08;0.00;;;;;;;;;;5041304;28;20074;-61
2021/12/28 11:49:44;;;;;;;2.20;0.10;;;;;;;;;;5035901;28;20017;-63
2021/12/28 11:52:11;;;;;;;1.35;0.10;;;;;;;;;;5055245;28;20353;-64
2021/12/28 11:54:38;;;;;;;0.45;0.20;;;;;;;;;;5054809;28;20479;-63
2021/12/28 11:57:12;;;;;;;1.65;0.32;;;;;;;;;;5053818;28;20025;-63
2021/12/28 11:59:39;;;;;;;;;;;;;;;;;;5056400;28;20025;-63
2021/12/28 12:02:09;;;;;;;0.85;0.15;;;;;;;;;;5047880;28;19947;-64
2021/12/28 12:04:34;;;;;;;0.82;0.20;;;;;;;;;;5057124;28;20013;-64
2021/12/28 12:07:01;;;;;;;0.47;0.10;;;;;;;;;;5069681;28;20103;-63
2021/12/28 12:09:27;;;;;;;0.00;0.00;;;;;;;;;;5065850;28;20012;-63
2021/12/28 12:12:07;;;;;;;0.60;0.30;;;;;;;;;;5054764;28;20031;-62
2021/12/28 12:14:51;;;;;;;0.20;0.08;;;;;;;;;;5053513;28;20490;-62
2021/12/28 12:17:26;;;;;;;1.90;0.10;;;;;;;;;;5053825;28;20024;-63
2021/12/28 12:19:51;;;;;;;0.05;0.00;;;;;;;;;;5051987;28;20083;-63
2021/12/28 12:22:31;;;;;;;0.23;0.10;;;;;;;;;;5052909;28;20499;-64
2021/12/28 12:25:01;;;;;;;0.30;0.13;;;;;;;;;;5049563;28;20274;-65
2021/12/28 12:27:38;;;;;;;0.20;0.08;;;;;;;;;;5054615;28;20025;-61
2021/12/28 12:30:03;;;;;;;0.70;0.03;;;;;;;;;;5059368;28;20016;-64
2021/12/28 12:32:55;;;;;;;0.45;0.20;;;;;;;;;;5057488;28;20426;-63
2021/12/28 12:35:35;;;;;;;0.20;0.00;;;;;;;;;;5004341;28;20033;-63
2021/12/28 12:38:24;;;;;;;0.43;0.10;;;;;;;;;;5010238;28;20052;-64
2021/12/28 12:40:49;;;;;;;0.68;0.47;;;;;;;;;;5010127;28;20033;-63
2021/12/28 12:43:14;;;;;;;0.30;0.10;;;;;;;;;;5027396;28;20030;-65
2021/12/28 12:45:52;;;;;;;2.05;0.57;;;;;;;;;;5012955;28;20053;-64
2021/12/28 12:48:29;;;;;;;0.35;0.20;;;;;;;;;;5010229;28;20037;-66
2021/12/28 12:50:54;;;;;;;0.20;0.10;;;;;;;;;;4995307;28;20057;-67
2021/12/28 12:53:40;;;;;;;0.93;0.30;;;;;;;;;;5010364;28;20065;-69
2021/12/28 12:56:16;;;;;;;0.28;0.10;;;;;;;;;;5020688;28;20048;-70
2021/12/28 12:58:45;;;;;;;1.60;0.65;;;;;;;;;;4994879;28;20042;-64
2021/12/28 13:01:22;;;;;;;0.77;0.20;;;;;;;;;;5013749;28;20436;-64
2021/12/28 13:03:48;;;;;;;0.65;0.28;;;;;;;;;;5008211;28;20013;-68
2021/12/28 13:06:13;;;;;;;0.73;0.10;;;;;;;;;;5021000;28;20043;-66
2021/12/28 13:08:38;;;;;;;0.80;0.13;;;;;;;;;;5031389;28;20112;-65
2021/12/28 13:11:03;;;;;;;1.08;0.10;;;;;;;;;;5018320;28;20029;-66
2021/12/28 13:13:29;;;;;;;0.70;0.20;;;;;;;;;;5063295;28;20029;-66
2021/12/28 13:15:54;;;;;;;0.25;0.20;;;;;;;;;;5064037;28;20040;-65
2021/12/28 13:18:19;;;;;;;0.80;0.30;;;;;;;;;;5048421;28;20514;-64
2021/12/28 13:20:47;;;;;;;0.93;0.20;;;;;;;;;;5057008;28;20045;-64
2021/12/28 13:23:13;;;;;;;0.45;0.20;;;;;;;;;;5058040;28;20400;-64
2021/12/28 13:25:40;;;;;;;0.52;0.28;;;;;;;;;;5055621;28;20033;-64
2021/12/28 13:28:06;;;;;;;1.65;0.20;;;;;;;;;;5066392;28;20039;-65
2021/12/28 13:30:34;;;;;;;1.13;0.30;;;;;;;;;;5062658;28;20017;-63
2021/12/28 13:32:59;;;;;;;0.80;0.25;;;;;;;;;;5059869;28;20408;-64
2021/12/28 13:35:29;;;;;;;0.30;0.20;;;;;;;;;;5056622;28;20407;-64
2021/12/28 13:37:57;;;;;;;0.57;0.10;;;;;;;;;;5063086;28;20039;-64
2021/12/28 13:40:27;;;;;;;0.85;0.20;;;;;;;;;;5053590;28;20102;-65
2021/12/28 13:42:58;;;;;;;0.20;0.10;;;;;;;;;;5055658;28;20036;-64
2021/12/28 13:45:29;;;;;;;0.60;0.08;;;;;;;;;;5054403;28;20480;-64
2021/12/28 13:47:54;;;;;;;0.52;0.20;;;;;;;;;;5054370;28;20082;-64
2021/12/28 13:50:20;;;;;;;0.70;0.20;;;;;;;;;;5060684;28;20465;-64
2021/12/28 13:52:47;;;;;;;0.98;0.20;;;;;;;;;;5060633;28;20032;-64
2021/12/28 13:55:13;;;;;;;0.17;0.10;;;;;;;;;;5062678;28;20376;-65
2021/12/28 13:57:38;;;;;;;0.35;0.10;;;;;;;;;;5057139;28;20036;-64
2021/12/28 14:00:05;;;;;;;0.47;0.10;;;;;;;;;;5060818;28;20037;-64
2021/12/28 14:02:31;;;;;;;0.57;0.10;;;;;;;;;;5069563;28;20020;-64
2021/12/28 14:04:56;;;;;;;0.55;0.13;;;;;;;;;;5053959;28;20024;-63
2021/12/28 14:07:22;;;;;;;0.40;0.10;;;;;;;;;;5058515;28;20037;-63
2021/12/28 14:09:49;;;;;;;0.85;0.28;;;;;;;;;;5060443;28;20024;-63
2021/12/28 14:12:15;;;;;;;0.38;0.10;;;;;;;;;;5057730;28;20496;-64
2021/12/28 14:14:45;;;;;;;0.32;0.10;;;;;;;;;;5048705;28;20139;-64
2021/12/28 14:17:14;;;;;;;0.30;0.10;;;;;;;;;;5049067;28;20167;-64
2021/12/28 14:19:40;;;;;;;0.75;0.08;;;;;;;;;;5052369;28;20017;-64
2021/12/28 14:22:09;;;;;;;0.95;0.20;;;;;;;;;;5068129;28;20045;-63
2021/12/28 14:24:34;;;;;;;0.80;0.10;;;;;;;;;;5052894;28;20021;-63
2021/12/28 14:27:00;;;;;;;0.90;0.10;;;;;;;;;;5050007;28;20364;-63
2021/12/28 14:29:26;;;;;;;0.20;0.20;;;;;;;;;;5054129;28;20041;-63
2021/12/28 14:31:52;;;;;;;0.45;0.22;;;;;;;;;;5056649;28;20119;-64
2021/12/28 14:34:27;;;;;;;0.10;0.08;;;;;;;;;;5060777;28;20021;-63
2021/12/28 14:36:58;;;;;;;0.17;0.10;;;;;;;;;;5060502;28;20426;-64
2021/12/28 14:39:24;;;;;;;0.30;0.10;;;;;;;;;;5059164;28;20036;-64
2021/12/28 14:41:50;;;;;;;0.32;0.10;;;;;;;;;;5047079;28;20026;-64